Startpagina
METAR-TAF:

METAR-TAF

Vliegvelden :

Batajnica, Servië

breedte: 44-56-07N, lengte: 020-15-27E, hoogte: 86 m

Actueel weer

Dit bericht is 18 minuten geleden gemaakt, om 18:00 UTC
Wind 5 kt uit het oostnoordoosten, variërend tussen het noordoosten en het oosten
Temperatuur 13°C
Vochtigheid 58%
Druk 1026 hPa
Zicht 10 km of meer
geen wolken onder 1500 m en geen cumulonimbus

METAR: LYBT 121800Z 07005KT 040V100 CAVOK 13/05 Q1026 NOSIG

Tijdstip: 19:18 (18:18 UTC)

Verwachting

Dit bericht is 1 uur en het 18 minuten geleden gemaakt, om 17:00 UTC
Verwachting geldig van 12 om 18 UTC tot 13 om 18 UTC
Wind 7 kt uit het oostnoordoosten
Zicht 10 km of meer
geen wolken onder 1500 m en geen cumulonimbus
Wijzigt naar
van 13 om 01 UTC tot 13 om 03 UTC
Wind 10 kt uit het oostzuidoosten
Tijdelijke
van 13 om 09 UTC tot 13 om 15 UTC
Wind 20 kt uit het oostzuidoosten

TAF: LYBT 121700Z 1218/1318 06007KT CAVOK TX18/1312Z TN08/1305Z BECMG 1301/1303 12010KT TEMPO 1309/1315 12020KT

Waarnemingen en weersverwachtingen van meer dan 4000 vliegvelden (METAR en TAF).

De beschikbare stations zijn de gele en rode punten op de kaart.

Ga met uw muis naar het station om de naam te zien.

Klik dan om waarnemingen en weersverwachtingen te zien.

kaart wijzigen: klik op de groene knoppen met een zwart kruis om in te zoomen, op de groene knop met een streepje om uit te zoomen of op de groene pijlen voor aangrenzende kaarten.


METAR-TAF: